Time;durP1;ratioP1;P1;durP2;ratioP2;P2;SDS_P1;SDS_P2;PMS_P1;PMS_P2;Temp;Humidity;BMP_temperature;BMP_pressure;BME280_temperature;BME280_humidity;BME280_pressure;Samples;Min_cycle;Max_cycle;Signal;HPM_P1;HPM_P2
2022/08/21 00:01:21;;;;;;;14.80;4.20;;;16.30;99.90;;;;;;4944934;28;253652;-65
2022/08/21 00:03:48;;;;;;;12.85;4.00;;;16.30;99.90;;;;;;4934802;28;209293;-66
2022/08/21 00:06:14;;;;;;;12.38;3.92;;;16.30;99.90;;;;;;4949684;28;274006;-65
2022/08/21 00:08:41;;;;;;;14.20;4.20;;;16.20;99.90;;;;;;4956704;28;45525;-66
2022/08/21 00:11:08;;;;;;;11.67;4.43;;;16.20;99.90;;;;;;4961618;28;275755;-65
2022/08/21 00:13:34;;;;;;;13.00;4.10;;;16.20;99.90;;;;;;4941340;28;210092;-66
2022/08/21 00:16:02;;;;;;;10.45;4.00;;;16.20;99.90;;;;;;4956333;28;255712;-67
2022/08/21 00:18:28;;;;;;;13.23;4.20;;;16.10;99.90;;;;;;4951062;28;206205;-66
2022/08/21 00:20:54;;;;;;;14.88;4.55;;;16.10;99.90;;;;;;4979998;28;20423;-66
2022/08/21 00:23:21;;;;;;;12.57;4.10;;;16.10;99.90;;;;;;4916996;28;207535;-66
2022/08/21 00:25:48;;;;;;;14.65;4.45;;;16.00;99.90;;;;;;4982438;28;20062;-66
2022/08/21 00:28:14;;;;;;;11.57;4.30;;;16.00;99.90;;;;;;4926312;28;252237;-66
2022/08/21 00:30:41;;;;;;;14.25;4.25;;;16.00;99.90;;;;;;4984217;28;20054;-66
2022/08/21 00:33:09;;;;;;;12.10;4.13;;;16.00;99.90;;;;;;4920286;28;260721;-66
2022/08/21 00:35:38;;;;;;;14.73;4.55;;;15.90;99.90;;;;;;4970941;28;20051;-66
2022/08/21 00:38:07;;;;;;;11.43;4.10;;;15.90;99.90;;;;;;4915942;28;274915;-64
2022/08/21 00:40:48;;;;;;;12.82;4.18;;;15.90;99.90;;;;;;4971343;28;20038;-65
2022/08/21 00:43:18;;;;;;;12.20;4.35;;;15.90;99.90;;;;;;4917432;28;274089;-66
2022/08/21 00:45:44;;;;;;;9.77;3.65;;;15.80;99.90;;;;;;4983298;28;20047;-65
2022/08/21 00:48:11;;;;;;;11.65;4.20;;;15.70;99.90;;;;;;4921612;28;264347;-66
2022/08/21 00:50:43;;;;;;;14.23;4.32;;;15.70;99.90;;;;;;4984629;28;20078;-65
2022/08/21 00:53:11;;;;;;;11.63;4.45;;;15.70;99.90;;;;;;4929842;28;257202;-66
2022/08/21 00:55:37;;;;;;;15.25;4.50;;;15.60;99.90;;;;;;4982687;28;20063;-66
2022/08/21 00:58:07;;;;;;;12.68;4.75;;;15.60;99.90;;;;;;4918877;28;253614;-66
2022/08/21 01:00:38;;;;;;;12.77;4.40;;;15.50;99.90;;;;;;4980900;28;20105;-66
2022/08/21 01:03:09;;;;;;;13.00;4.68;;;15.50;99.90;;;;;;4905297;28;263133;-66
2022/08/21 01:05:35;;;;;;;13.40;4.38;;;15.40;99.90;;;;;;4956729;28;20070;-66
2022/08/21 01:08:03;;;;;;;12.45;4.13;;;15.40;99.90;;;;;;4928489;28;258874;-66
2022/08/21 01:10:30;;;;;;;11.75;4.10;;;15.30;99.90;;;;;;4982791;28;20415;-66
2022/08/21 01:12:58;;;;;;;13.30;4.60;;;15.30;99.90;;;;;;4919603;28;254372;-66
2022/08/21 01:15:30;;;;;;;13.27;4.82;;;15.30;99.90;;;;;;4976887;28;20062;-66
2022/08/21 01:17:57;;;;;;;15.33;4.73;;;15.20;99.90;;;;;;4919827;28;270439;-65
2022/08/21 01:20:23;;;;;;;11.00;4.07;;;15.20;99.90;;;;;;4978682;28;20123;-65
2022/08/21 01:22:50;;;;;;;10.30;4.70;;;15.20;99.90;;;;;;4926642;28;206986;-66
2022/08/21 01:25:19;;;;;;;12.63;4.88;;;15.10;99.90;;;;;;4951254;28;157606;-66
2022/08/21 01:27:46;;;;;;;12.82;4.50;;;15.10;99.90;;;;;;4963243;28;259739;-66
2022/08/21 01:30:16;;;;;;;12.63;5.13;;;15.10;99.90;;;;;;4939787;28;210328;-66
2022/08/21 01:32:42;;;;;;;14.07;5.43;;;15.10;99.90;;;;;;4960682;28;268339;-66
2022/08/21 01:35:11;;;;;;;11.50;4.82;;;15.10;99.90;;;;;;4939947;28;206442;-66
2022/08/21 01:37:37;;;;;;;14.55;5.43;;;15.10;99.90;;;;;;4959878;28;274856;-66
2022/08/21 01:40:05;;;;;;;13.93;5.47;;;15.00;99.90;;;;;;4939987;28;206108;-66
2022/08/21 01:42:32;;;;;;;13.93;5.25;;;15.00;99.90;;;;;;4959518;28;263237;-66
2022/08/21 01:44:58;;;;;;;13.35;5.85;;;15.00;99.90;;;;;;4942155;28;206719;-65
2022/08/21 01:47:24;;;;;;;13.60;5.32;;;15.00;99.90;;;;;;4961009;28;271100;-66
2022/08/21 01:49:51;;;;;;;11.60;5.40;;;15.10;99.90;;;;;;4939444;28;207031;-65
2022/08/21 01:52:18;;;;;;;16.25;5.50;;;15.00;99.90;;;;;;4955240;28;267738;-65
2022/08/21 01:54:45;;;;;;;13.65;5.20;;;15.00;99.90;;;;;;4930823;28;206366;-66
2022/08/21 01:57:12;;;;;;;14.38;5.82;;;15.00;99.90;;;;;;4939766;28;254253;-65
2022/08/21 01:59:38;;;;;;;15.27;5.85;;;15.00;99.90;;;;;;4937947;28;212401;-66
2022/08/21 02:02:05;;;;;;;12.90;5.30;;;14.90;99.90;;;;;;4945185;28;270559;-66
2022/08/21 02:04:32;;;;;;;13.68;5.57;;;14.90;99.90;;;;;;4929469;28;207045;-66
2022/08/21 02:07:00;;;;;;;14.20;5.82;;;14.90;99.90;;;;;;4949908;28;252157;-66
2022/08/21 02:09:26;;;;;;;13.85;5.85;;;15.00;99.90;;;;;;4947565;28;175898;-66
2022/08/21 02:11:53;;;;;;;15.32;6.22;;;14.90;99.90;;;;;;4960334;28;278734;-66
2022/08/21 02:14:19;;;;;;;12.82;5.80;;;14.90;99.90;;;;;;4931245;28;209546;-66
2022/08/21 02:16:46;;;;;;;14.07;6.35;;;14.90;99.90;;;;;;4941585;28;252652;-65
2022/08/21 02:19:14;;;;;;;12.52;5.72;;;14.90;99.90;;;;;;4930260;28;213628;-66
2022/08/21 02:21:41;;;;;;;17.23;6.43;;;14.90;99.90;;;;;;4951004;28;277475;-65
2022/08/21 02:24:08;;;;;;;15.27;6.47;;;14.90;99.90;;;;;;4937079;28;205978;-66
2022/08/21 02:26:35;;;;;;;15.57;6.80;;;14.90;99.90;;;;;;4962474;28;272915;-66
2022/08/21 02:29:02;;;;;;;14.10;6.18;;;14.90;99.90;;;;;;4936079;28;209720;-66
2022/08/21 02:31:29;;;;;;;14.93;6.13;;;14.90;99.90;;;;;;4962294;28;267785;-66
2022/08/21 02:33:55;;;;;;;13.68;6.60;;;14.90;99.90;;;;;;4945774;28;208400;-66
2022/08/21 02:36:21;;;;;;;15.52;7.05;;;14.90;99.90;;;;;;4957629;28;267991;-65
2022/08/21 02:38:47;;;;;;;13.98;6.78;;;14.80;99.90;;;;;;4939526;28;213110;-65
2022/08/21 02:41:17;;;;;;;14.55;7.30;;;14.90;99.90;;;;;;4959651;28;265074;-67
2022/08/21 02:43:44;;;;;;;15.48;6.97;;;14.80;99.90;;;;;;4946713;28;195900;-66
2022/08/21 02:46:12;;;;;;;15.13;6.82;;;14.80;99.90;;;;;;4958923;28;267351;-66
2022/08/21 02:48:39;;;;;;;15.57;7.07;;;14.80;99.90;;;;;;4934230;28;207490;-66
2022/08/21 02:51:12;;;;;;;14.52;6.80;;;14.80;99.90;;;;;;4964140;28;268230;-66
2022/08/21 02:53:39;;;;;;;17.10;7.13;;;14.80;99.90;;;;;;4942896;28;206832;-66
2022/08/21 02:56:08;;;;;;;16.77;7.87;;;14.80;99.90;;;;;;4958990;28;262961;-66
2022/08/21 02:58:41;;;;;;;14.93;7.20;;;14.70;99.90;;;;;;4948322;28;207005;-66
2022/08/21 03:01:09;;;;;;;12.60;6.40;;;14.70;99.90;;;;;;4940069;28;254980;-66
2022/08/21 03:03:36;;;;;;;18.63;7.18;;;14.70;99.90;;;;;;4910745;28;202448;-66
2022/08/21 03:06:04;;;;;;;16.80;6.93;;;14.70;99.90;;;;;;4939176;28;265203;-66
2022/08/21 03:08:30;;;;;;;12.90;5.95;;;14.70;99.90;;;;;;4948582;28;169610;-67
2022/08/21 03:10:57;;;;;;;15.98;6.90;;;14.70;99.90;;;;;;4959584;28;270045;-66
2022/08/21 03:13:23;;;;;;;13.13;6.18;;;14.60;99.90;;;;;;4937646;28;209751;-66
2022/08/21 03:15:49;;;;;;;14.43;6.90;;;14.60;99.90;;;;;;4977331;28;20051;-66
2022/08/21 03:18:17;;;;;;;14.18;6.45;;;14.60;99.90;;;;;;4920814;28;260499;-66
2022/08/21 03:20:45;;;;;;;14.38;5.93;;;14.60;99.90;;;;;;4979669;28;20054;-66
2022/08/21 03:23:11;;;;;;;15.20;6.57;;;14.50;99.90;;;;;;4915821;28;256124;-65
2022/08/21 03:25:38;;;;;;;14.30;6.30;;;14.50;99.90;;;;;;4964262;28;20058;-66
2022/08/21 03:28:09;;;;;;;13.47;5.77;;;14.50;99.90;;;;;;4923553;28;263376;-65
2022/08/21 03:30:36;;;;;;;12.40;6.20;;;14.40;99.90;;;;;;4967706;28;20066;-66
2022/08/21 03:33:03;;;;;;;14.13;7.07;;;14.40;99.90;;;;;;4913224;28;253842;-65
2022/08/21 03:35:29;;;;;;;12.55;6.50;;;14.40;99.90;;;;;;4969189;28;20042;-66
2022/08/21 03:37:55;;;;;;;14.60;6.67;;;14.40;99.90;;;;;;4918745;28;253178;-66
2022/08/21 03:40:24;;;;;;;14.32;7.10;;;14.40;99.90;;;;;;4984910;28;20085;-66
2022/08/21 03:42:50;;;;;;;14.48;6.47;;;14.40;99.90;;;;;;4943838;28;276542;-64
2022/08/21 03:45:20;;;;;;;14.60;6.82;;;14.40;99.90;;;;;;4957780;28;207797;-66
2022/08/21 03:47:57;;;;;;;14.82;6.53;;;14.40;99.90;;;;;;4963245;28;270324;-63
2022/08/21 03:50:25;;;;;;;14.18;6.60;;;14.40;99.90;;;;;;4932400;28;206153;-66
2022/08/21 03:52:51;;;;;;;15.20;7.18;;;14.40;99.90;;;;;;4929674;28;263836;-63
2022/08/21 03:55:18;;;;;;;14.05;6.55;;;14.40;99.90;;;;;;4982028;28;20324;-66
2022/08/21 03:57:44;;;;;;;15.18;6.88;;;14.40;99.90;;;;;;4965379;28;255315;-66
2022/08/21 04:00:14;;;;;;;14.85;6.68;;;14.40;99.90;;;;;;4943768;28;209492;-66
2022/08/21 04:02:43;;;;;;;16.08;6.30;;;14.40;99.90;;;;;;4930360;28;158054;-66
2022/08/21 04:05:10;;;;;;;16.40;6.63;;;14.40;99.90;;;;;;4943126;28;208878;-66
2022/08/21 04:07:36;;;;;;;16.33;6.90;;;14.40;99.90;;;;;;4965299;28;252168;-66
2022/08/21 04:10:05;;;;;;;13.52;6.40;;;14.40;99.90;;;;;;4943721;28;206808;-66
2022/08/21 04:12:31;;;;;;;12.27;6.53;;;14.40;99.90;;;;;;4959785;28;269154;-66
2022/08/21 04:14:58;;;;;;;14.50;6.03;;;14.40;99.90;;;;;;4947232;28;206269;-66
2022/08/21 04:17:24;;;;;;;15.15;6.75;;;14.40;99.90;;;;;;4971140;28;257682;-66
2022/08/21 04:19:50;;;;;;;16.60;6.40;;;14.50;99.90;;;;;;4927959;28;210072;-66
2022/08/21 04:22:16;;;;;;;16.65;6.35;;;14.40;99.90;;;;;;4973323;28;44452;-66
2022/08/21 04:24:42;;;;;;;13.80;5.85;;;14.40;99.90;;;;;;4910617;28;208282;-66
2022/08/21 04:27:09;;;;;;;14.23;6.13;;;14.40;99.90;;;;;;4958408;28;273824;-66
2022/08/21 04:29:35;;;;;;;12.95;5.68;;;14.40;99.90;;;;;;4931619;28;211291;-66
2022/08/21 04:32:01;;;;;;;14.52;5.90;;;14.50;99.90;;;;;;4962744;28;273755;-66
2022/08/21 04:34:27;;;;;;;15.07;5.40;;;14.40;99.90;;;;;;4931316;28;209422;-66
2022/08/21 04:36:53;;;;;;;16.45;5.78;;;14.50;99.90;;;;;;4961102;28;252779;-66
2022/08/21 04:39:19;;;;;;;13.30;5.68;;;14.40;99.90;;;;;;4954350;28;199282;-66
2022/08/21 04:41:46;;;;;;;14.20;5.97;;;14.50;99.90;;;;;;4961056;28;258733;-66
2022/08/21 04:44:12;;;;;;;15.82;6.03;;;14.50;99.90;;;;;;4939558;28;207663;-66
2022/08/21 04:46:38;;;;;;;15.20;6.18;;;14.50;99.90;;;;;;4963123;28;252413;-67
2022/08/21 04:49:04;;;;;;;10.73;5.53;;;14.50;99.90;;;;;;4934883;28;206309;-67
2022/08/21 04:51:34;;;;;;;13.27;5.50;;;14.60;99.90;;;;;;4960112;28;264681;-66
2022/08/21 04:54:18;;;;;;;13.88;5.72;;;14.60;99.90;;;;;;4951030;28;207928;-67
2022/08/21 04:56:55;;;;;;;14.40;5.60;;;14.70;99.90;;;;;;4960985;28;262385;-66
2022/08/21 04:59:29;;;;;;;16.70;6.43;;;14.70;99.90;;;;;;4912739;28;216495;-67
2022/08/21 05:01:56;;;;;;;13.10;5.88;;;14.70;99.90;;;;;;4945882;28;258450;-66
2022/08/21 05:04:26;;;;;;;13.35;5.63;;;14.70;99.90;;;;;;4930071;28;206684;-67
2022/08/21 05:06:56;;;;;;;14.35;5.97;;;14.70;99.90;;;;;;4956236;28;249254;-66
2022/08/21 05:09:24;;;;;;;16.93;5.97;;;14.80;99.90;;;;;;4935098;28;206488;-67
2022/08/21 05:11:51;;;;;;;15.68;5.85;;;14.80;99.90;;;;;;4959747;28;269201;-66
2022/08/21 05:14:19;;;;;;;14.95;5.72;;;14.90;99.90;;;;;;4937930;28;217670;-67
2022/08/21 05:16:46;;;;;;;13.90;5.78;;;14.90;99.90;;;;;;4962237;28;248958;-68
2022/08/21 05:19:12;;;;;;;13.75;5.82;;;14.90;99.90;;;;;;4942332;28;206400;-65
2022/08/21 05:21:43;;;;;;;14.32;5.82;;;15.00;99.90;;;;;;4954004;28;267184;-65
2022/08/21 05:24:10;;;;;;;13.77;5.68;;;15.00;99.90;;;;;;4943294;28;205837;-67
2022/08/21 05:26:36;;;;;;;14.75;5.93;;;15.10;99.90;;;;;;4961110;28;270943;-66
2022/08/21 05:29:03;;;;;;;13.55;5.38;;;15.00;99.90;;;;;;4944152;28;207411;-66
2022/08/21 05:31:29;;;;;;;14.82;5.43;;;15.10;99.90;;;;;;4962166;28;265107;-66
2022/08/21 05:33:56;;;;;;;13.82;5.68;;;15.10;99.90;;;;;;4948389;28;206595;-66
2022/08/21 05:36:23;;;;;;;13.45;5.60;;;15.20;99.90;;;;;;4960770;28;256854;-65
2022/08/21 05:38:49;;;;;;;14.38;5.63;;;15.20;99.90;;;;;;4939753;28;205310;-66
2022/08/21 05:41:16;;;;;;;16.17;5.10;;;15.30;99.90;;;;;;4950521;28;253486;-65
2022/08/21 05:43:42;;;;;;;14.48;5.18;;;15.30;99.90;;;;;;4912859;28;214175;-65
2022/08/21 05:46:08;;;;;;;14.32;5.13;;;15.40;99.90;;;;;;4952510;28;267170;-65
2022/08/21 05:48:35;;;;;;;13.15;5.10;;;15.40;99.90;;;;;;4938628;28;209223;-65
2022/08/21 05:51:11;;;;;;;17.02;6.03;;;15.50;99.90;;;;;;4983657;28;20062;-65
2022/08/21 05:53:38;;;;;;;14.55;5.28;;;15.50;99.90;;;;;;4954850;28;214708;-65
2022/08/21 05:56:04;;;;;;;12.75;5.30;;;15.60;99.90;;;;;;4982512;28;272870;-66
2022/08/21 05:58:32;;;;;;;14.68;5.38;;;15.60;99.90;;;;;;4951902;28;207622;-66
2022/08/21 06:01:00;;;;;;;15.32;5.25;;;15.70;99.90;;;;;;4952722;28;244260;-66
2022/08/21 06:03:29;;;;;;;13.60;4.60;;;15.70;99.90;;;;;;4944161;28;209406;-67
2022/08/21 06:05:56;;;;;;;15.85;5.25;;;15.80;99.90;;;;;;4928861;28;277720;-67
2022/08/21 06:08:23;;;;;;;15.15;4.93;;;15.90;99.90;;;;;;4895994;28;208681;-65
2022/08/21 06:10:51;;;;;;;16.67;5.00;;;16.00;99.90;;;;;;4956989;28;20051;-67
2022/08/21 06:13:19;;;;;;;14.50;4.60;;;16.00;99.90;;;;;;4923220;28;207151;-67
2022/08/21 06:15:46;;;;;;;12.70;4.90;;;16.10;99.90;;;;;;4957628;28;20666;-67
2022/08/21 06:18:12;;;;;;;16.08;4.90;;;16.20;99.90;;;;;;4929086;28;253501;-65
2022/08/21 06:20:39;;;;;;;16.40;4.80;;;16.20;99.90;;;;;;4979556;28;20123;-66
2022/08/21 06:23:05;;;;;;;14.63;4.47;;;16.30;99.90;;;;;;4914282;28;253306;-66
2022/08/21 06:25:32;;;;;;;14.20;4.78;;;16.50;99.90;;;;;;4965653;28;20059;-66
2022/08/21 06:28:09;;;;;;;13.48;4.75;;;16.90;99.90;;;;;;4914795;28;266203;-65
2022/08/21 06:30:38;;;;;;;13.00;4.22;;;17.30;99.90;;;;;;4969202;28;20058;-67
2022/08/21 06:33:04;;;;;;;16.85;4.72;;;17.70;99.90;;;;;;4907323;28;251640;-66
2022/08/21 06:35:30;;;;;;;11.48;3.70;;;18.00;99.90;;;;;;4966600;28;20053;-66
2022/08/21 06:37:57;;;;;;;13.38;3.92;;;18.20;99.90;;;;;;4921145;28;259127;-66
2022/08/21 06:40:24;;;;;;;12.75;4.32;;;18.40;99.90;;;;;;4961949;28;20058;-64
2022/08/21 06:42:50;;;;;;;12.80;4.35;;;18.70;99.90;;;;;;4932414;28;255597;-66
2022/08/21 06:45:16;;;;;;;14.40;4.13;;;18.80;99.90;;;;;;4966710;28;206083;-66
2022/08/21 06:47:43;;;;;;;13.57;3.70;;;18.90;99.90;;;;;;4962377;28;260358;-66
2022/08/21 06:50:09;;;;;;;13.55;4.00;;;19.10;99.90;;;;;;4944548;28;170663;-65
2022/08/21 06:52:37;;;;;;;11.23;3.55;;;19.20;99.90;;;;;;4959615;28;275398;-66
2022/08/21 06:55:07;;;;;;;11.90;3.60;;;19.50;99.90;;;;;;4926943;28;216485;-66
2022/08/21 06:57:33;;;;;;;12.00;3.47;;;19.70;99.90;;;;;;4960967;28;270187;-67
2022/08/21 07:00:00;;;;;;;12.25;3.42;;;19.90;99.90;;;;;;4922017;28;210207;-66
2022/08/21 07:02:26;;;;;;;11.30;2.90;;;20.10;99.90;;;;;;4931541;28;255769;-65
2022/08/21 07:04:52;;;;;;;14.10;3.28;;;20.10;99.90;;;;;;4934389;28;206489;-65
2022/08/21 07:07:18;;;;;;;13.30;3.50;;;20.20;99.90;;;;;;4952000;28;267707;-66
2022/08/21 07:09:44;;;;;;;11.23;3.22;;;20.40;99.90;;;;;;4937391;28;206434;-65
2022/08/21 07:12:10;;;;;;;13.57;2.95;;;20.50;99.90;;;;;;4956698;28;275065;-65
2022/08/21 07:14:36;;;;;;;11.95;2.95;;;20.60;99.90;;;;;;4935200;28;213807;-65
2022/08/21 07:17:03;;;;;;;10.88;2.80;;;20.70;99.90;;;;;;4954322;28;257079;-65
2022/08/21 07:19:29;;;;;;;12.73;3.20;;;20.80;99.90;;;;;;4925049;28;206974;-66
2022/08/21 07:21:59;;;;;;;15.80;3.22;;;20.90;99.90;;;;;;4953544;28;261381;-65
2022/08/21 07:24:26;;;;;;;11.05;2.78;;;21.10;99.90;;;;;;4922161;28;206781;-65
2022/08/21 07:26:52;;;;;;;9.70;2.40;;;21.10;99.90;;;;;;4960398;28;272696;-65
2022/08/21 07:29:18;;;;;;;12.00;2.67;;;21.30;99.90;;;;;;4923165;28;206733;-66
2022/08/21 07:31:44;;;;;;;9.20;2.50;;;21.40;99.90;;;;;;4935613;28;267713;-65
2022/08/21 07:34:11;;;;;;;10.55;2.40;;;21.50;99.90;;;;;;4937893;28;210742;-67
2022/08/21 07:36:37;;;;;;;12.27;3.10;;;21.60;99.90;;;;;;4961428;28;251897;-67
2022/08/21 07:39:03;;;;;;;10.57;2.90;;;21.80;99.90;;;;;;4915434;28;217565;-68
2022/08/21 07:41:29;;;;;;;15.07;3.00;;;22.00;99.90;;;;;;4945290;28;277648;-66
2022/08/21 07:43:57;;;;;;;13.40;2.63;;;22.00;99.90;;;;;;4933378;28;173893;-66
2022/08/21 07:46:24;;;;;;;11.73;2.40;;;22.10;99.90;;;;;;4956091;28;275135;-66
2022/08/21 07:48:51;;;;;;;11.65;2.40;;;22.20;99.90;;;;;;4918087;28;211012;-67
2022/08/21 07:51:18;;;;;;;12.85;2.67;;;22.20;99.90;;;;;;4959005;28;252005;-66
2022/08/21 07:53:50;;;;;;;11.35;2.55;;;22.00;99.40;;;;;;4941330;28;190130;-65
2022/08/21 07:56:16;;;;;;;10.65;2.50;;;22.00;99.90;;;;;;4957529;28;266286;-66
2022/08/21 07:58:42;;;;;;;9.30;2.40;;;22.10;99.90;;;;;;4937643;28;212800;-66
2022/08/21 08:01:08;;;;;;;12.33;2.47;;;22.20;99.70;;;;;;4939237;28;271624;-66
2022/08/21 08:03:35;;;;;;;12.05;2.58;;;22.30;99.60;;;;;;4936489;28;208107;-67
2022/08/21 08:06:01;;;;;;;13.75;2.50;;;22.50;98.70;;;;;;4947341;28;259207;-67
2022/08/21 08:08:28;;;;;;;14.52;2.72;;;22.60;99.10;;;;;;4919470;28;206256;-66
2022/08/21 08:10:56;;;;;;;12.32;2.67;;;22.50;97.90;;;;;;4977376;28;20046;-68
2022/08/21 08:13:23;;;;;;;14.73;2.90;;;22.60;98.70;;;;;;4889733;28;209389;-67
2022/08/21 08:15:49;;;;;;;12.10;2.58;;;22.80;99.10;;;;;;4956348;28;20054;-66
2022/08/21 08:18:15;;;;;;;12.35;2.20;;;22.90;98.60;;;;;;4906669;28;267257;-67
2022/08/21 08:20:42;;;;;;;16.20;2.38;;;22.90;98.00;;;;;;4967999;28;20170;-66
2022/08/21 08:23:12;;;;;;;10.70;2.17;;;23.00;97.20;;;;;;4923391;28;256739;-66
2022/08/21 08:25:38;;;;;;;12.93;2.00;;;23.10;97.20;;;;;;4979569;28;20508;-66
2022/08/21 08:28:06;;;;;;;11.30;2.40;;;23.30;97.60;;;;;;4919738;28;257596;-66
2022/08/21 08:30:32;;;;;;;11.30;2.20;;;23.50;97.10;;;;;;4983769;28;20059;-66
2022/08/21 08:32:59;;;;;;;10.18;2.10;;;23.70;97.20;;;;;;4912711;28;254850;-67
2022/08/21 08:35:26;;;;;;;10.45;1.90;;;23.80;97.00;;;;;;4973026;28;20059;-67
2022/08/21 08:37:52;;;;;;;11.18;2.25;;;24.00;96.70;;;;;;4910763;28;253798;-66
2022/08/21 08:40:28;;;;;;;10.45;2.20;;;24.20;96.40;;;;;;4959477;28;20082;-70
2022/08/21 08:42:55;;;;;;;13.57;2.50;;;24.30;95.10;;;;;;4909267;28;258781;-66
2022/08/21 08:45:25;;;;;;;11.23;2.08;;;24.30;96.40;;;;;;4937974;28;20074;-66
2022/08/21 08:48:05;;;;;;;11.50;2.20;;;24.60;95.50;;;;;;4913133;28;258987;-67
2022/08/21 08:50:46;;;;;;;9.43;2.03;;;24.80;96.00;;;;;;4983976;28;21220;-68
2022/08/21 08:53:17;;;;;;;10.05;1.95;;;24.90;95.70;;;;;;4917395;28;257393;-67
2022/08/21 08:55:45;;;;;;;11.65;2.00;;;25.10;95.70;;;;;;4980464;28;20069;-67
2022/08/21 08:58:22;;;;;;;11.13;2.30;;;25.10;94.70;;;;;;4920124;28;265234;-70
2022/08/21 09:00:51;;;;;;;12.35;2.20;;;25.10;95.40;;;;;;4981189;28;20508;-67
2022/08/21 09:03:17;;;;;;;12.02;2.25;;;25.40;94.70;;;;;;4907972;28;268755;-66
2022/08/21 09:05:55;;;;;;;10.52;2.00;;;25.30;94.90;;;;;;4980943;28;20059;-67
2022/08/21 09:08:49;;;;;;;10.57;2.25;;;25.30;94.70;;;;;;4925022;28;142354;-66
2022/08/21 09:11:29;;;;;;;11.13;2.20;;;25.30;94.80;;;;;;4948845;28;267101;-66
2022/08/21 09:14:13;;;;;;;13.45;2.60;;;25.30;94.90;;;;;;4944744;28;213813;-65
2022/08/21 09:17:20;;;;;;;10.82;2.05;;;25.50;94.10;;;;;;4957041;28;274166;-65
2022/08/21 09:20:14;;;;;;;12.43;2.15;;;25.60;94.20;;;;;;4927628;28;206105;-65
2022/08/21 09:22:50;;;;;;;14.18;2.95;;;25.70;94.10;;;;;;4946315;28;222227;-66
2022/08/21 09:25:26;;;;;;;9.95;2.25;;;26.00;94.00;;;;;;4910093;28;210897;-65
2022/08/21 09:27:53;;;;;;;12.65;2.33;;;26.20;94.40;;;;;;4903336;28;226940;-65
2022/08/21 09:30:25;;;;;;;10.40;2.22;;;26.40;94.40;;;;;;4960508;28;20050;-65
2022/08/21 09:32:51;;;;;;;9.77;2.10;;;26.70;94.20;;;;;;4923305;28;197151;-65
2022/08/21 09:35:20;;;;;;;10.35;2.05;;;27.00;93.60;;;;;;4913823;28;206755;-64
2022/08/21 09:37:57;;;;;;;10.65;2.28;;;27.10;93.40;;;;;;4927306;28;225672;-65
2022/08/21 09:40:30;;;;;;;11.38;2.22;;;27.50;93.20;;;;;;4872910;28;151705;-65
2022/08/21 09:42:59;;;;;;;10.87;2.03;;;27.60;92.90;;;;;;4876189;28;227769;-65
2022/08/21 09:45:26;;;;;;;10.70;2.27;;;27.90;92.80;;;;;;4949129;28;20507;-64
2022/08/21 09:47:52;;;;;;;12.15;2.30;;;27.90;92.00;;;;;;4914718;28;235383;-62
2022/08/21 09:50:26;;;;;;;11.82;2.22;;;27.80;92.10;;;;;;4964222;28;20050;-64
2022/08/21 09:52:59;;;;;;;12.15;2.10;;;27.80;91.80;;;;;;4916381;28;211454;-64
2022/08/21 09:58:32;;;;;;;15.18;2.38;;;27.40;91.40;;;;;;4862304;29;172417;-65
2022/08/21 10:01:00;;;;;;;12.05;2.28;;;27.20;91.60;;;;;;4901689;28;176234;-63
2022/08/21 10:03:27;;;;;;;10.82;2.22;;;27.20;91.70;;;;;;4892839;28;37930;-64
2022/08/21 10:06:05;;;;;;;10.82;2.00;;;26.90;91.50;;;;;;4918356;29;20059;-64
2022/08/21 10:08:33;;;;;;;12.90;2.45;;;26.20;91.40;;;;;;4852418;29;207015;-65
2022/08/21 10:11:12;;;;;;;13.50;2.40;;;25.80;92.10;;;;;;4911449;29;123505;-64
2022/08/21 10:14:14;;;;;;;12.10;2.20;;;25.60;92.50;;;;;;4877540;28;189016;-65
2022/08/21 10:17:13;;;;;;;12.25;2.47;;;25.10;92.70;;;;;;4914773;28;95974;-64
2022/08/21 10:19:51;;;;;;;11.45;2.10;;;24.70;93.20;;;;;;4882651;28;209600;-66
2022/08/21 10:22:20;;;;;;;14.10;2.70;;;24.30;93.70;;;;;;4933172;28;114582;-65
2022/08/21 10:25:05;;;;;;;12.45;2.25;;;24.50;94.20;;;;;;4900577;28;206691;-65
2022/08/21 10:27:51;;;;;;;11.02;1.98;;;24.90;94.10;;;;;;4931338;28;152143;-65
2022/08/21 10:30:28;;;;;;;10.40;2.20;;;25.40;93.60;;;;;;4888244;28;206769;-65
2022/08/21 10:32:54;;;;;;;11.52;1.90;;;26.00;93.70;;;;;;4879911;28;204374;-66
2022/08/21 10:35:31;;;;;;;11.32;2.47;;;26.70;93.10;;;;;;4963858;28;20051;-65
2022/08/21 10:37:58;;;;;;;11.30;2.17;;;27.40;92.60;;;;;;4925017;28;258349;-65
2022/08/21 10:40:47;;;;;;;11.52;1.83;;;27.80;92.60;;;;;;4960709;28;20051;-65
2022/08/21 10:43:40;;;;;;;10.07;2.10;;;28.40;91.00;;;;;;4918786;28;263198;-65
2022/08/21 10:46:12;;;;;;;9.80;2.07;;;28.50;88.40;;;;;;4957868;28;271117;-65
2022/08/21 10:48:54;;;;;;;8.80;1.80;;;28.70;87.90;;;;;;4942233;28;156129;-66
2022/08/21 10:51:46;;;;;;;10.40;2.15;;;28.90;87.30;;;;;;4953006;28;254902;-66
2022/08/21 10:54:50;;;;;;;11.07;2.20;;;28.50;85.50;;;;;;4934693;28;217119;-65
2022/08/21 10:57:29;;;;;;;11.02;2.08;;;28.80;85.40;;;;;;4954768;28;274641;-64
2022/08/21 11:00:11;;;;;;;12.00;2.15;;;29.30;85.60;;;;;;4921213;28;206723;-65
2022/08/21 11:03:12;;;;;;;10.75;2.28;;;29.40;84.20;;;;;;4940563;28;273542;-65
2022/08/21 11:05:49;;;;;;;11.10;2.10;;;29.30;80.50;;;;;;4908885;28;220916;-65
2022/08/21 11:08:28;;;;;;;10.13;2.08;;;29.40;82.10;;;;;;4913081;28;250095;-65
2022/08/21 11:11:05;;;;;;;12.95;2.20;;;29.50;79.60;;;;;;4975043;28;20055;-65
2022/08/21 11:13:37;;;;;;;9.80;1.90;;;29.40;81.80;;;;;;4920632;28;168727;-64
2022/08/21 11:16:39;;;;;;;8.75;1.75;;;29.30;80.60;;;;;;4959903;28;260441;-65
2022/08/21 11:19:25;;;;;;;11.70;2.22;;;28.60;78.80;;;;;;4914774;28;206257;-66
2022/08/21 11:22:10;;;;;;;9.77;1.80;;;28.10;80.30;;;;;;4951076;28;273778;-65
2022/08/21 11:25:02;;;;;;;12.02;2.05;;;27.70;81.60;;;;;;4937524;28;207180;-66
2022/08/21 11:27:57;;;;;;;13.30;1.95;;;27.30;81.80;;;;;;4964212;28;246397;-66
2022/08/21 11:30:28;;;;;;;10.70;1.98;;;26.90;82.00;;;;;;4928663;28;207603;-66
2022/08/21 11:33:09;;;;;;;10.63;1.95;;;26.50;82.80;;;;;;4924332;28;263943;-65
2022/08/21 11:36:04;;;;;;;10.57;2.10;;;26.20;83.30;;;;;;4963255;28;20058;-66
2022/08/21 11:38:40;;;;;;;11.20;2.25;;;26.10;84.60;;;;;;4928274;28;157859;-66
2022/08/21 11:41:27;;;;;;;10.85;2.30;;;25.80;85.00;;;;;;4951794;28;270717;-65
2022/08/21 11:44:20;;;;;;;9.45;1.90;;;25.60;85.70;;;;;;4934858;28;211557;-66
2022/08/21 11:46:51;;;;;;;12.88;2.58;;;25.50;86.40;;;;;;4952334;28;274324;-65
2022/08/21 11:49:46;;;;;;;10.65;2.15;;;25.10;88.00;;;;;;4938321;28;210704;-65
2022/08/21 11:52:24;;;;;;;12.82;2.40;;;25.00;89.50;;;;;;4953426;28;271065;-65
2022/08/21 11:54:59;;;;;;;10.35;2.10;;;24.70;90.10;;;;;;4925261;28;206216;-66
2022/08/21 11:57:50;;;;;;;8.52;1.98;;;24.80;90.20;;;;;;4959031;28;264247;-65
2022/08/21 12:00:28;;;;;;;11.85;2.40;;;25.50;90.60;;;;;;4916711;28;206969;-65
2022/08/21 12:03:29;;;;;;;13.35;2.55;;;25.80;89.60;;;;;;4910740;28;270030;-64
2022/08/21 12:06:01;;;;;;;8.73;2.03;;;25.60;90.10;;;;;;4952806;28;271176;-65
2022/08/21 12:08:32;;;;;;;11.45;2.20;;;25.30;90.50;;;;;;4951620;28;29427;-65
2022/08/21 12:11:16;;;;;;;11.13;2.20;;;25.10;90.50;;;;;;4960770;28;267744;-65
2022/08/21 12:14:06;;;;;;;11.18;2.30;;;25.00;91.20;;;;;;4941346;28;206160;-65
2022/08/21 12:16:58;;;;;;;14.30;2.30;;;24.80;91.50;;;;;;4959273;28;258031;-66
2022/08/21 12:19:24;;;;;;;11.88;2.45;;;24.50;92.00;;;;;;4934429;28;206098;-66
2022/08/21 12:22:05;;;;;;;11.73;2.45;;;24.60;92.30;;;;;;4964993;28;250827;-65
2022/08/21 12:24:41;;;;;;;;;;;24.90;92.40;;;;;;4941970;28;209485;-65
2022/08/21 12:27:19;;;;;;;10.88;2.28;;;25.00;92.30;;;;;;4954586;28;257434;-66
2022/08/21 12:29:50;;;;;;;10.23;2.20;;;24.90;92.30;;;;;;4944364;28;137247;-65
2022/08/21 12:32:16;;;;;;;12.52;3.17;;;24.70;92.40;;;;;;4963586;28;264959;-65
2022/08/21 12:34:48;;;;;;;14.07;2.10;;;24.40;92.40;;;;;;4919238;28;206577;-65
2022/08/21 12:37:37;;;;;;;10.52;2.03;;;24.20;92.50;;;;;;4959662;28;254798;-66
2022/08/21 12:40:10;;;;;;;12.20;2.33;;;24.10;93.00;;;;;;4926318;28;222052;-66
2022/08/21 12:42:45;;;;;;;10.80;2.15;;;23.80;92.60;;;;;;4960904;28;278056;-66
2022/08/21 12:45:46;;;;;;;11.80;2.47;;;23.70;92.90;;;;;;4909362;28;266315;-66
2022/08/21 12:48:29;;;;;;;12.10;2.30;;;23.50;93.20;;;;;;4912677;28;253478;-66
2022/08/21 12:51:14;;;;;;;9.32;2.25;;;23.40;93.40;;;;;;4972270;28;271317;-65
2022/08/21 12:53:44;;;;;;;13.10;2.78;;;23.30;93.90;;;;;;4948312;28;145793;-66